Time;durP1;ratioP1;P1;durP2;ratioP2;P2;SDS_P1;SDS_P2;PMS_P1;PMS_P2;Temp;Humidity;BMP_temperature;BMP_pressure;BME280_temperature;BME280_humidity;BME280_pressure;Samples;Min_cycle;Max_cycle;Signal;HPM_P1;HPM_P2
2023/04/22 00:00:13;;;;;;;9.13;6.50;;;;;;;14.03;55.11;94305.81;5128597;28;20307;-45
2023/04/22 00:02:40;;;;;;;11.60;7.27;;;;;;;14.03;55.22;94303.25;5129986;27;20256;-47
2023/04/22 00:05:12;;;;;;;14.20;7.27;;;;;;;13.94;55.48;94286.22;5130052;28;20188;-46
2023/04/22 00:07:38;;;;;;;10.40;7.23;;;;;;;13.99;55.47;94303.75;5127339;28;20180;-46
2023/04/22 00:10:08;;;;;;;9.27;6.40;;;;;;;13.93;55.56;94291.56;5128972;27;20192;-46
2023/04/22 00:12:34;;;;;;;10.00;6.83;;;;;;;13.94;55.54;94306.00;5128618;28;20203;-52
2023/04/22 00:15:01;;;;;;;12.80;7.70;;;;;;;13.92;55.49;94303.63;5129810;27;20180;-47
2023/04/22 00:17:28;;;;;;;13.50;7.13;;;;;;;13.89;55.54;94306.50;5131870;27;20195;-45
2023/04/22 00:19:55;;;;;;;9.10;7.40;;;;;;;13.76;55.81;94281.34;5132097;27;20651;-46
2023/04/22 00:22:22;;;;;;;8.87;7.37;;;;;;;13.86;55.69;94306.03;5131927;27;20239;-45
2023/04/22 00:24:49;;;;;;;8.87;6.30;;;;;;;13.84;55.80;94293.34;5130411;27;20188;-46
2023/04/22 00:27:21;;;;;;;11.10;7.07;;;;;;;13.81;55.80;94302.19;5131989;27;20189;-47
2023/04/22 00:29:51;;;;;;;12.80;7.60;;;;;;;13.75;55.96;94300.31;5131455;27;20196;-46
2023/04/22 00:32:21;;;;;;;8.07;7.03;;;;;;;13.76;55.86;94304.47;5131564;27;20608;-47
2023/04/22 00:34:50;;;;;;;7.47;6.63;;;;;;;13.74;56.03;94308.97;5132113;27;20620;-47
2023/04/22 00:37:16;;;;;;;9.50;6.60;;;;;;;13.73;56.05;94306.56;5130975;27;20898;-46
2023/04/22 00:39:44;;;;;;;11.77;6.97;;;;;;;13.69;55.95;94307.91;5131441;27;20224;-46
2023/04/22 00:42:12;;;;;;;8.43;6.67;;;;;;;13.66;55.97;94305.66;5131366;27;20196;-47
2023/04/22 00:44:41;;;;;;;11.23;7.20;;;;;;;13.65;56.02;94311.75;5131203;27;20192;-47
2023/04/22 00:47:08;;;;;;;8.30;6.73;;;;;;;13.62;56.32;94310.31;5132197;27;20185;-46
2023/04/22 00:49:36;;;;;;;7.17;6.10;;;;;;;13.59;56.44;94302.91;5130697;27;20181;-47
2023/04/22 00:52:03;;;;;;;7.93;6.53;;;;;;;13.56;56.61;94313.56;5131065;27;20215;-47
2023/04/22 00:54:30;;;;;;;8.43;6.60;;;;;;;13.54;56.35;94326.53;5131222;27;20244;-47
2023/04/22 00:56:58;;;;;;;9.00;6.40;;;;;;;13.50;56.67;94317.56;5131688;27;20554;-47
2023/04/22 00:59:26;;;;;;;8.17;6.70;;;;;;;13.49;56.70;94320.31;5130757;27;20307;-46
2023/04/22 01:01:56;;;;;;;8.83;6.83;;;;;;;13.45;56.61;94314.69;5131255;27;20185;-46
2023/04/22 01:04:24;;;;;;;9.60;6.93;;;;;;;13.37;56.89;94314.69;5131363;27;20643;-47
2023/04/22 01:06:52;;;;;;;9.87;7.03;;;;;;;13.43;56.92;94326.09;5128734;27;20200;-47
2023/04/22 01:09:19;;;;;;;10.27;7.23;;;;;;;13.40;56.70;94326.44;5131148;27;20189;-46
2023/04/22 01:11:46;;;;;;;12.77;7.20;;;;;;;13.25;56.95;94305.72;5129875;27;20727;-48
2023/04/22 01:14:13;;;;;;;10.00;7.00;;;;;;;13.37;57.18;94326.75;5131205;27;20233;-46
2023/04/22 01:16:42;;;;;;;9.90;7.43;;;;;;;13.34;56.96;94334.78;5131251;27;20635;-46
2023/04/22 01:19:11;;;;;;;9.37;7.93;;;;;;;13.29;57.08;94325.78;5131138;27;20269;-46
2023/04/22 01:21:39;;;;;;;9.17;7.37;;;;;;;13.28;57.18;94329.31;5130403;27;20220;-45
2023/04/22 01:24:09;;;;;;;11.70;7.83;;;;;;;13.08;57.10;94297.22;5131197;27;20188;-48
2023/04/22 01:26:36;;;;;;;10.63;7.53;;;;;;;13.28;57.34;94329.31;5130724;27;20211;-48
2023/04/22 01:29:03;;;;;;;10.03;7.20;;;;;;;13.27;57.40;94330.28;5130816;27;20810;-46
2023/04/22 01:31:31;;;;;;;9.97;7.43;;;;;;;13.17;57.66;94314.25;5130008;27;20196;-46
2023/04/22 01:33:58;;;;;;;12.20;7.27;;;;;;;13.24;57.52;94333.19;5130453;27;20590;-46
2023/04/22 01:36:25;;;;;;;8.97;7.17;;;;;;;13.22;57.59;94326.59;5130483;27;20576;-48
2023/04/22 01:38:52;;;;;;;11.00;7.80;;;;;;;13.15;57.71;94316.16;5130490;27;21725;-49
2023/04/22 01:41:21;;;;;;;8.80;7.20;;;;;;;13.20;57.63;94324.16;5130098;27;20204;-47
2023/04/22 01:43:48;;;;;;;13.33;7.53;;;;;;;13.19;57.54;94319.22;5130361;27;20288;-46
2023/04/22 01:46:16;;;;;;;10.13;7.33;;;;;;;13.16;57.63;94317.75;5130248;27;20196;-46
2023/04/22 01:48:49;;;;;;;9.40;7.10;;;;;;;13.17;57.82;94316.81;5130177;27;22133;-46
2023/04/22 01:51:16;;;;;;;9.23;7.53;;;;;;;13.15;57.85;94318.72;5130245;27;20241;-47
2023/04/22 01:53:43;;;;;;;9.23;7.50;;;;;;;13.17;57.71;94318.56;5129769;27;20180;-48
2023/04/22 01:56:10;;;;;;;8.63;7.27;;;;;;;13.19;57.91;94324.34;5130473;27;20216;-47
2023/04/22 01:58:39;;;;;;;10.70;7.10;;;;;;;13.12;57.96;94308.78;5130121;27;20192;-47
2023/04/22 02:01:06;;;;;;;13.73;8.00;;;;;;;13.08;57.87;94294.66;5129941;27;20192;-48
2023/04/22 02:03:33;;;;;;;12.17;7.17;;;;;;;13.23;58.00;94316.19;5129652;27;20212;-47
2023/04/22 02:06:00;;;;;;;8.27;7.00;;;;;;;13.23;58.04;94318.75;5129677;27;20177;-46
2023/04/22 02:08:26;;;;;;;10.70;6.67;;;;;;;13.24;58.07;94315.22;5130293;27;20583;-45
2023/04/22 02:10:53;;;;;;;8.17;7.17;;;;;;;13.26;58.18;94310.72;5130646;27;20275;-46
2023/04/22 02:13:20;;;;;;;9.70;7.73;;;;;;;13.30;57.93;94319.72;5128753;27;20195;-46
2023/04/22 02:15:48;;;;;;;9.97;7.07;;;;;;;13.32;57.89;94311.03;5129676;27;20189;-46
2023/04/22 02:18:16;;;;;;;7.97;6.70;;;;;;;13.27;57.69;94302.06;5128952;27;20195;-48
2023/04/22 02:20:44;;;;;;;8.30;7.23;;;;;;;13.34;57.88;94320.16;5129514;27;20480;-46
2023/04/22 02:23:11;;;;;;;9.43;6.30;;;;;;;13.34;57.80;94316.78;5089384;28;20669;-48
2023/04/22 02:25:38;;;;;;;8.83;6.80;;;;;;;13.34;57.77;94320.16;5089100;28;20284;-47
2023/04/22 02:28:05;;;;;;;6.70;6.07;;;;;;;13.33;57.76;94316.00;5089041;28;20206;-47
2023/04/22 02:30:32;;;;;;;7.00;6.30;;;;;;;13.35;57.69;94314.09;5088754;28;20193;-46
2023/04/22 02:33:00;;;;;;;7.57;6.30;;;;;;;13.34;57.76;94316.78;5088557;28;20197;-48
2023/04/22 02:35:27;;;;;;;8.40;6.40;;;;;;;13.35;57.64;94323.56;5088637;28;20190;-47
2023/04/22 02:37:53;;;;;;;10.73;6.10;;;;;;;13.34;57.47;94315.03;5087967;28;20201;-47
2023/04/22 02:40:20;;;;;;;8.53;6.37;;;;;;;13.38;57.78;94329.13;5088958;28;20299;-47
2023/04/22 02:42:48;;;;;;;7.13;6.10;;;;;;;13.34;57.59;94317.59;5088760;28;20194;-47
2023/04/22 02:45:15;;;;;;;6.33;5.73;;;;;;;13.30;57.58;94322.28;5088036;28;20246;-48
2023/04/22 02:47:41;;;;;;;9.27;5.57;;;;;;;13.38;57.38;94330.91;5087690;28;20208;-47
2023/04/22 02:50:11;;;;;;;9.90;6.03;;;;;;;13.31;57.78;94323.06;5088509;28;20193;-47
2023/04/22 02:52:38;;;;;;;8.03;6.40;;;;;;;13.36;57.61;94331.09;5088827;28;20228;-47
2023/04/22 02:55:05;;;;;;;12.03;6.23;;;;;;;13.33;57.43;94335.75;5088313;28;20201;-47
2023/04/22 02:57:32;;;;;;;7.33;6.37;;;;;;;13.35;57.65;94336.41;5088387;28;20197;-47
2023/04/22 02:59:59;;;;;;;8.83;6.30;;;;;;;13.33;57.66;94343.44;5087580;28;20725;-47
2023/04/22 03:02:25;;;;;;;7.87;6.07;;;;;;;13.24;57.92;94327.25;5088644;28;20181;-47
2023/04/22 03:04:53;;;;;;;7.53;6.33;;;;;;;13.28;57.83;94342.16;5088215;28;20197;-48
2023/04/22 03:07:21;;;;;;;11.33;6.17;;;;;;;13.25;57.68;94333.97;5088409;28;20591;-46
2023/04/22 03:09:48;;;;;;;9.03;6.70;;;;;;;13.24;57.72;94334.94;5088114;28;20194;-46
2023/04/22 03:12:15;;;;;;;8.00;6.23;;;;;;;13.22;58.01;94340.25;5088547;28;20635;-46
2023/04/22 03:14:41;;;;;;;8.07;5.93;;;;;;;13.20;57.71;94337.00;5087569;28;20193;-48
2023/04/22 03:17:08;;;;;;;9.03;6.10;;;;;;;12.59;57.96;94245.16;5089249;28;20246;-46
2023/04/22 03:19:35;;;;;;;8.73;6.50;;;;;;;13.15;58.23;94336.69;5089387;28;20221;-47
2023/04/22 03:22:02;;;;;;;8.00;6.30;;;;;;;13.11;58.32;94326.91;5109383;28;20231;-46
2023/04/22 03:24:30;;;;;;;8.00;6.43;;;;;;;13.13;58.03;94345.53;5129326;28;20286;-46
2023/04/22 03:26:56;;;;;;;7.40;6.63;;;;;;;13.11;57.97;94343.13;5129343;28;20813;-47
2023/04/22 03:29:23;;;;;;;6.80;6.13;;;;;;;13.09;58.23;94339.13;5128939;28;20268;-48
2023/04/22 03:31:50;;;;;;;10.37;6.00;;;;;;;13.09;58.20;94339.13;5129152;28;20196;-46
2023/04/22 03:34:17;;;;;;;7.53;5.83;;;;;;;13.08;58.27;94348.56;5129554;27;20205;-48
2023/04/22 03:36:44;;;;;;;6.77;5.40;;;;;;;13.05;58.33;94343.78;5130013;27;20655;-47
2023/04/22 03:39:11;;;;;;;7.07;6.27;;;;;;;13.07;58.28;94346.97;5129409;28;20196;-47
2023/04/22 03:41:39;;;;;;;9.43;5.80;;;;;;;13.07;58.35;94352.09;5128411;27;20207;-46
2023/04/22 03:44:06;;;;;;;7.03;5.70;;;;;;;13.09;58.22;94354.53;5124394;28;20181;-46
2023/04/22 03:46:34;;;;;;;8.77;6.13;;;;;;;13.10;58.33;94348.41;5128105;27;20188;-47
2023/04/22 03:49:01;;;;;;;7.27;6.07;;;;;;;13.11;58.26;94360.28;5127751;27;20568;-47
2023/04/22 03:51:28;;;;;;;7.83;6.33;;;;;;;13.12;58.21;94354.19;5132952;27;20231;-46
2023/04/22 03:53:55;;;;;;;8.77;5.50;;;;;;;13.15;58.22;94354.66;5132651;27;20184;-47
2023/04/22 03:56:23;;;;;;;7.70;5.80;;;;;;;13.18;58.22;94359.50;5132884;27;20200;-47
2023/04/22 03:58:51;;;;;;;7.13;5.97;;;;;;;13.22;58.25;94355.66;5132719;27;20185;-46
2023/04/22 04:01:22;;;;;;;8.50;5.83;;;;;;;13.27;58.25;94366.25;5132311;27;20661;-46
2023/04/22 04:03:49;;;;;;;8.20;5.60;;;;;;;13.26;58.18;94354.38;5132517;27;20279;-47
2023/04/22 04:06:16;;;;;;;8.10;5.67;;;;;;;13.36;58.05;94367.03;5132829;27;20198;-47
2023/04/22 04:08:52;;;;;;;9.80;6.43;;;;;;;13.44;58.09;94366.22;5132519;27;20287;-47
2023/04/22 04:11:20;;;;;;;7.47;5.87;;;;;;;13.51;58.01;94370.56;5130906;27;20206;-50
2023/04/22 04:13:48;;;;;;;8.10;6.10;;;;;;;13.60;57.87;94371.34;5130886;27;20696;-47
2023/04/22 04:16:16;;;;;;;7.83;6.00;;;;;;;13.70;57.82;94371.97;5132739;27;20257;-47
2023/04/22 04:18:43;;;;;;;6.87;6.00;;;;;;;13.79;58.03;94367.59;5133210;27;20188;-46
2023/04/22 04:21:10;;;;;;;9.37;5.47;;;;;;;13.92;57.84;94372.22;5132789;27;20228;-46
2023/04/22 04:23:37;;;;;;;7.40;5.80;;;;;;;14.01;57.30;94364.31;5133041;27;20177;-46
2023/04/22 04:26:04;;;;;;;7.33;5.93;;;;;;;14.15;57.26;94362.00;5133025;27;20291;-47
2023/04/22 04:28:33;;;;;;;8.67;5.83;;;;;;;14.36;56.90;94364.78;5132744;27;20216;-48
2023/04/22 04:31:01;;;;;;;7.67;6.03;;;;;;;14.63;56.58;94376.41;5132823;27;20604;-47
2023/04/22 04:33:30;;;;;;;10.43;5.90;;;;;;;14.51;55.86;94308.31;5132961;27;20189;-46
2023/04/22 04:35:58;;;;;;;8.03;6.17;;;;;;;15.37;55.34;94375.84;5132982;27;20628;-49
2023/04/22 04:38:25;;;;;;;6.20;5.30;;;;;;;15.77;54.79;94379.88;5132877;27;20248;-47
2023/04/22 04:40:52;;;;;;;5.83;5.20;;;;;;;16.30;54.59;94388.28;5133259;27;20302;-48
2023/04/22 04:43:20;;;;;;;6.50;5.67;;;;;;;16.83;53.94;94386.31;5132953;27;20188;-48
2023/04/22 04:45:46;;;;;;;8.70;5.60;;;;;;;17.42;53.40;94393.03;5133558;27;20181;-47
2023/04/22 04:48:14;;;;;;;7.77;5.60;;;;;;;18.05;52.55;94393.88;5133383;27;20200;-47
2023/04/22 04:50:43;;;;;;;8.50;5.50;;;;;;;18.59;51.80;94377.56;5132925;27;20189;-48
2023/04/22 04:53:10;;;;;;;11.47;5.47;;;;;;;19.44;50.86;94401.28;5133315;27;20184;-48
2023/04/22 04:55:37;;;;;;;6.17;4.97;;;;;;;20.16;49.83;94403.00;5132650;27;20583;-48
2023/04/22 04:58:04;;;;;;;7.50;5.10;;;;;;;20.83;49.07;94398.41;5132750;27;20185;-47
2023/04/22 05:00:31;;;;;;;7.57;5.20;;;;;;;21.60;48.03;94416.56;5132285;27;20223;-47
2023/04/22 05:02:58;;;;;;;6.27;5.40;;;;;;;22.24;47.20;94407.56;5132794;27;20192;-46
2023/04/22 05:05:25;;;;;;;6.97;4.70;;;;;;;22.70;46.44;94396.59;5132494;27;20188;-48
2023/04/22 05:07:53;;;;;;;8.45;5.53;;;;;;;22.87;45.77;94338.63;5132688;27;20672;-47
2023/04/22 05:10:20;;;;;;;5.80;4.70;;;;;;;23.75;44.95;94411.81;5132249;27;20199;-48
2023/04/22 05:12:47;;;;;;;5.95;4.45;;;;;;;24.04;44.20;94391.03;5132476;27;20284;-49
2023/04/22 05:15:14;;;;;;;6.38;4.45;;;;;;;24.73;43.41;94414.69;5132024;27;20811;-48
2023/04/22 05:17:41;;;;;;;6.97;4.43;;;;;;;25.30;42.75;94412.06;5132680;27;20188;-47
2023/04/22 05:20:08;;;;;;;7.15;4.53;;;;;;;25.91;42.32;94423.59;5131966;27;20243;-48
2023/04/22 05:22:36;;;;;;;4.75;4.28;;;;;;;26.58;41.48;94421.88;5132028;27;20578;-48
2023/04/22 05:25:05;;;;;;;8.52;4.80;;;;;;;27.18;40.82;94413.13;5132404;27;20671;-49
2023/04/22 05:27:32;;;;;;;7.80;5.00;;;;;;;27.81;40.49;94423.94;5132292;27;20183;-46
2023/04/22 05:29:58;;;;;;;4.63;4.13;;;;;;;28.37;39.63;94424.31;5131917;27;20200;-48
2023/04/22 05:32:25;;;;;;;7.18;4.32;;;;;;;28.89;39.32;94434.03;5131913;27;20184;-48
2023/04/22 05:34:52;;;;;;;5.50;4.97;;;;;;;29.41;38.58;94422.59;5132343;27;20291;-45
2023/04/22 05:37:19;;;;;;;6.88;4.53;;;;;;;29.89;38.34;94439.78;5132549;27;20280;-48
2023/04/22 05:39:46;;;;;;;4.93;4.40;;;;;;;30.35;37.55;94438.94;5133735;27;20202;-47
2023/04/22 05:42:14;;;;;;;6.78;4.40;;;;;;;30.80;37.18;94440.69;5133571;27;20192;-49
2023/04/22 05:44:41;;;;;;;5.65;3.97;;;;;;;31.27;36.90;94441.28;5133918;27;20189;-47
2023/04/22 05:47:08;;;;;;;4.80;4.30;;;;;;;31.68;36.13;94437.28;5134809;27;20196;-47
2023/04/22 05:49:35;;;;;;;4.68;4.18;;;;;;;32.13;36.05;94435.38;5154943;27;20271;-48
2023/04/22 05:52:02;;;;;;;6.13;4.88;;;;;;;32.62;35.37;94434.38;5155003;27;20216;-47
2023/04/22 05:54:28;;;;;;;4.88;4.05;;;;;;;33.09;34.89;94435.41;5148983;27;20199;-48
2023/04/22 05:56:55;;;;;;;6.25;4.35;;;;;;;33.52;34.90;94419.47;5131285;27;20216;-49
2023/04/22 05:59:24;;;;;;;4.53;3.90;;;;;;;34.09;34.34;94437.94;5131485;27;20188;-50
2023/04/22 06:01:50;;;;;;;6.32;4.63;;;;;;;34.54;33.77;94438.22;5131160;27;20291;-49
2023/04/22 06:04:19;;;;;;;19.48;3.30;;;;;;;34.91;33.68;94440.69;5132190;27;20181;-48
2023/04/22 06:06:46;;;;;;;11.60;3.88;;;;;;;34.66;34.46;94447.28;5131890;27;20575;-48
2023/04/22 06:09:13;;;;;;;7.55;4.00;;;;;;;34.19;34.73;94430.59;5130694;27;20192;-47
2023/04/22 06:11:40;;;;;;;8.00;3.70;;;;;;;33.83;33.66;94425.06;5130867;27;20196;-46
2023/04/22 06:14:07;;;;;;;8.93;4.18;;;;;;;33.60;34.11;94432.06;5130576;27;20185;-50
2023/04/22 06:16:35;;;;;;;10.73;3.97;;;;;;;33.27;33.98;94406.53;5127956;27;20210;-47
2023/04/22 06:19:03;;;;;;;7.85;4.13;;;;;;;33.29;33.73;94433.53;5121634;27;20223;-46
2023/04/22 06:21:31;;;;;;;12.48;4.85;;;;;;;33.14;34.29;94439.84;5130382;27;20228;-47
2023/04/22 06:23:58;;;;;;;6.85;5.07;;;;;;;33.02;33.72;94431.53;5129598;27;20188;-47
2023/04/22 06:26:25;;;;;;;6.15;4.63;;;;;;;32.91;32.64;94434.31;5131434;27;20227;-47
2023/04/22 06:28:52;;;;;;;7.05;4.07;;;;;;;32.81;32.62;94433.63;5132548;27;20180;-46
2023/04/22 06:31:19;;;;;;;7.75;4.07;;;;;;;32.69;32.25;94436.69;5131306;27;20192;-48
2023/04/22 06:33:47;;;;;;;9.23;4.35;;;;;;;32.64;32.50;94434.88;5130074;27;20192;-49
2023/04/22 06:36:14;;;;;;;7.97;4.57;;;;;;;32.57;32.86;94441.59;5129858;27;20184;-48
2023/04/22 06:38:41;;;;;;;8.48;4.32;;;;;;;32.49;32.82;94434.25;5128556;27;20284;-46
2023/04/22 06:41:08;;;;;;;9.45;4.25;;;;;;;32.44;32.64;94441.19;5130018;27;20219;-47
2023/04/22 06:43:35;;;;;;;8.20;4.95;;;;;;;32.40;32.75;94440.16;5130853;27;20432;-51
2023/04/22 06:46:02;;;;;;;11.40;4.55;;;;;;;32.40;32.90;94436.72;5130384;27;20189;-47
2023/04/22 06:48:28;;;;;;;8.88;4.55;;;;;;;32.34;32.70;94435.97;5130345;27;20195;-46
2023/04/22 06:50:57;;;;;;;10.27;4.60;;;;;;;32.40;32.44;94437.50;5127005;27;20193;-52
2023/04/22 06:53:23;;;;;;;8.73;4.30;;;;;;;32.41;32.36;94441.72;5127604;27;20646;-45
2023/04/22 06:55:52;;;;;;;10.93;4.10;;;;;;;32.37;32.13;94443.34;5129107;27;20215;-45
2023/04/22 06:58:18;;;;;;;6.40;4.35;;;;;;;32.38;32.08;94450.22;5128957;27;20671;-47
2023/04/22 07:00:45;;;;;;;15.35;5.40;;;;;;;32.43;32.09;94450.19;5127985;27;20223;-46
2023/04/22 07:03:12;;;;;;;14.93;4.30;;;;;;;32.47;32.22;94445.09;5123169;27;20196;-47
2023/04/22 07:05:39;;;;;;;18.15;4.97;;;;;;;32.55;32.35;94441.06;5130065;27;20180;-47
2023/04/22 07:08:07;;;;;;;14.75;4.60;;;;;;;32.50;32.42;94415.44;5129647;27;20199;-47
2023/04/22 07:10:34;;;;;;;5.35;4.10;;;;;;;32.71;32.08;94440.63;5130077;27;20210;-48
2023/04/22 07:13:01;;;;;;;7.93;4.72;;;;;;;32.77;32.58;94445.84;5130180;27;20187;-47
2023/04/22 07:15:28;;;;;;;10.57;4.47;;;;;;;32.78;32.24;94445.59;5129965;27;20191;-48
2023/04/22 07:17:54;;;;;;;10.35;4.55;;;;;;;32.81;32.60;94445.00;5129813;27;20195;-48
2023/04/22 07:20:21;;;;;;;10.77;4.15;;;;;;;32.67;32.39;94417.63;5129839;27;20200;-49
2023/04/22 07:22:48;;;;;;;6.82;3.53;;;;;;;32.86;32.49;94444.97;5129628;27;20220;-47
2023/04/22 07:25:16;;;;;;;9.63;3.63;;;;;;;32.90;32.85;94447.81;5129498;28;20181;-46
2023/04/22 07:27:43;;;;;;;3.90;3.53;;;;;;;32.72;32.44;94414.91;5130070;28;20188;-47
2023/04/22 07:30:12;;;;;;;6.32;3.80;;;;;;;32.90;32.29;94447.81;5129617;28;20209;-49
2023/04/22 07:32:39;;;;;;;6.03;4.30;;;;;;;32.84;32.52;94438.34;5129729;28;20739;-47
2023/04/22 07:35:07;;;;;;;8.40;4.20;;;;;;;32.85;32.63;94459.25;5129864;27;20180;-48
2023/04/22 07:37:33;;;;;;;5.07;3.55;;;;;;;32.86;32.46;94452.09;5129492;28;20176;-48
2023/04/22 07:40:00;;;;;;;6.72;4.13;;;;;;;32.86;32.51;94454.75;5129921;27;20662;-46
2023/04/22 07:42:28;;;;;;;4.60;3.83;;;;;;;32.86;32.64;94449.44;5129588;28;20281;-47
2023/04/22 07:44:55;;;;;;;5.28;3.83;;;;;;;32.83;32.82;94448.16;5129996;28;20207;-47
2023/04/22 07:47:22;;;;;;;7.47;3.85;;;;;;;32.78;32.96;94439.50;5129716;28;20200;-47
2023/04/22 07:49:49;;;;;;;4.97;3.83;;;;;;;32.82;32.84;94443.94;5129869;28;20211;-48
2023/04/22 07:52:15;;;;;;;4.22;3.20;;;;;;;32.80;32.68;94447.94;5129762;28;20195;-48
2023/04/22 07:54:42;;;;;;;6.03;3.42;;;;;;;32.77;32.78;94443.19;5129935;28;20188;-47
2023/04/22 07:57:09;;;;;;;6.05;3.50;;;;;;;32.77;32.83;94445.84;5129933;28;20295;-48
2023/04/22 07:59:37;;;;;;;5.10;3.70;;;;;;;32.73;32.62;94445.66;5129592;28;20224;-46
2023/04/22 08:02:04;;;;;;;9.55;3.72;;;;;;;32.70;33.12;94441.69;5129530;28;20220;-48
2023/04/22 08:04:30;;;;;;;3.33;3.03;;;;;;;32.69;33.28;94437.47;5129290;28;20215;-47
2023/04/22 08:06:57;;;;;;;6.38;3.50;;;;;;;32.67;32.98;94439.59;5130156;27;20195;-47
2023/04/22 08:09:24;;;;;;;3.53;3.22;;;;;;;32.66;33.36;94429.28;5129501;27;20195;-47
2023/04/22 08:11:53;;;;;;;3.72;3.30;;;;;;;32.60;33.19;94435.69;5129969;27;20207;-47
2023/04/22 08:14:19;;;;;;;3.90;3.17;;;;;;;32.49;33.23;94432.41;5129284;27;20204;-47
2023/04/22 08:16:48;;;;;;;6.03;3.53;;;;;;;32.39;33.34;94430.66;5129673;27;20606;-48
2023/04/22 08:19:15;;;;;;;7.35;3.55;;;;;;;32.31;33.53;94428.59;5129505;27;20625;-49
2023/04/22 08:21:41;;;;;;;4.05;3.63;;;;;;;32.25;33.69;94432.34;5129311;27;20236;-47
2023/04/22 08:24:08;;;;;;;5.50;3.35;;;;;;;32.22;33.46;94425.75;5129652;27;20196;-46
2023/04/22 08:26:37;;;;;;;8.18;3.40;;;;;;;32.18;33.78;94418.66;5136597;27;20192;-48
2023/04/22 08:29:04;;;;;;;5.70;3.03;;;;;;;32.09;33.80;94418.47;5140197;27;20672;-48
2023/04/22 08:31:30;;;;;;;9.45;3.42;;;;;;;31.80;33.82;94394.63;5128721;28;20257;-48
2023/04/22 08:33:59;;;;;;;5.38;2.88;;;;;;;31.85;34.16;94418.41;5129375;27;20196;-48
2023/04/22 08:36:26;;;;;;;4.22;2.95;;;;;;;31.73;34.50;94417.94;5138399;27;20191;-48
2023/04/22 08:38:53;;;;;;;7.32;3.78;;;;;;;31.58;34.67;94415.44;5139531;27;20531;-46
2023/04/22 08:41:24;;;;;;;3.67;3.38;;;;;;;31.52;34.86;94413.88;5133044;27;20204;-48
2023/04/22 08:43:52;;;;;;;3.88;3.47;;;;;;;31.62;35.02;94408.53;5133973;27;20275;-48
2023/04/22 08:46:19;;;;;;;5.10;3.50;;;;;;;31.81;34.62;94406.78;5136139;27;20188;-49
2023/04/22 08:48:48;;;;;;;3.17;2.97;;;;;;;32.05;33.97;94406.09;5154348;27;20180;-48
2023/04/22 08:51:17;;;;;;;7.43;3.55;;;;;;;32.27;33.73;94406.38;5143067;27;20184;-47
2023/04/22 08:53:45;;;;;;;5.13;3.60;;;;;;;32.44;33.54;94403.34;5131735;27;20200;-47
2023/04/22 08:56:13;;;;;;;4.05;3.28;;;;;;;32.58;32.96;94396.28;5138358;27;20194;-49
2023/04/22 08:58:41;;;;;;;4.88;3.15;;;;;;;32.68;33.06;94396.13;5134172;27;20188;-49
2023/04/22 09:01:08;;;;;;;3.50;2.97;;;;;;;32.76;33.32;94393.94;5131100;27;20211;-50
2023/04/22 09:03:36;;;;;;;4.47;3.60;;;;;;;32.86;32.87;94402.56;5131461;27;20185;-50
2023/04/22 09:06:04;;;;;;;4.78;3.10;;;;;;;32.90;32.91;94395.63;5132217;27;20231;-48
2023/04/22 09:08:32;;;;;;;4.97;3.13;;;;;;;32.98;32.58;94402.16;5131986;27;20197;-48
2023/04/22 09:10:59;;;;;;;3.05;2.78;;;;;;;33.01;32.42;94388.34;5132009;27;20207;-49
2023/04/22 09:13:27;;;;;;;4.60;3.00;;;;;;;33.02;32.69;94387.28;5131612;27;20184;-48
2023/04/22 09:15:53;;;;;;;4.97;3.75;;;;;;;33.02;32.42;94389.91;5131600;27;20199;-48
2023/04/22 09:18:20;;;;;;;4.28;3.30;;;;;;;33.02;32.52;94389.91;5131450;27;20283;-50
2023/04/22 09:20:48;;;;;;;3.20;2.72;;;;;;;33.01;32.28;94387.56;5131737;27;20222;-48
2023/04/22 09:23:15;;;;;;;3.05;2.75;;;;;;;33.00;32.21;94386.00;5131251;27;20663;-47
2023/04/22 09:25:45;;;;;;;6.22;3.25;;;;;;;32.65;32.04;94340.34;5131637;27;20177;-48
2023/04/22 09:28:12;;;;;;;4.82;3.42;;;;;;;32.93;32.27;94378.38;5131350;27;20641;-47
2023/04/22 09:30:39;;;;;;;4.00;2.80;;;;;;;32.90;32.08;94386.88;5131051;27;20183;-49
2023/04/22 09:33:07;;;;;;;5.05;3.38;;;;;;;32.83;31.82;94373.22;5131644;27;20653;-50
2023/04/22 09:35:36;;;;;;;4.38;3.13;;;;;;;32.76;31.74;94370.09;5131480;27;20253;-48
2023/04/22 09:38:06;;;;;;;3.53;3.17;;;;;;;32.67;31.91;94365.44;5130574;27;20931;-49
2023/04/22 09:40:34;;;;;;;4.25;3.13;;;;;;;32.63;31.92;94371.59;5129335;27;20267;-49
2023/04/22 09:43:04;;;;;;;4.50;3.53;;;;;;;32.57;31.69;94372.75;5129210;27;20612;-48
2023/04/22 09:45:33;;;;;;;4.70;3.00;;;;;;;32.47;31.14;94373.63;5130501;27;20841;-47
2023/04/22 09:48:03;;;;;;;4.45;3.08;;;;;;;32.35;31.12;94360.00;5129508;27;20196;-48
2023/04/22 09:50:30;;;;;;;5.03;2.92;;;;;;;32.25;31.20;94360.88;5129357;27;20192;-47
2023/04/22 09:52:59;;;;;;;3.25;2.95;;;;;;;32.23;31.12;94369.09;5128955;27;20184;-48
2023/04/22 09:55:28;;;;;;;4.63;3.08;;;;;;;32.20;31.25;94355.66;5129168;27;20184;-48
2023/04/22 09:57:56;;;;;;;3.08;2.75;;;;;;;32.19;31.23;94356.72;5128926;27;20185;-48
2023/04/22 10:00:29;;;;;;;8.32;3.50;;;;;;;32.20;31.02;94353.78;5128683;27;20196;-49
2023/04/22 10:02:56;;;;;;;3.70;3.28;;;;;;;32.21;31.08;94365.97;5128391;27;20228;-49
2023/04/22 10:05:24;;;;;;;4.50;3.08;;;;;;;32.17;30.79;94361.53;5128556;27;20180;-49
2023/04/22 10:07:51;;;;;;;4.05;3.15;;;;;;;32.10;30.64;94345.19;5128839;27;20257;-49
2023/04/22 10:10:18;;;;;;;7.05;3.63;;;;;;;32.10;30.89;94356.53;5128358;27;20196;-48
2023/04/22 10:12:47;;;;;;;7.75;3.08;;;;;;;31.98;30.82;94356.91;5128302;27;20670;-51
2023/04/22 10:15:14;;;;;;;3.90;3.15;;;;;;;31.77;30.86;94347.56;5128817;27;20291;-50
2023/04/22 10:17:46;;;;;;;6.85;3.10;;;;;;;31.55;30.70;94348.03;5128597;27;20193;-47
2023/04/22 10:20:17;;;;;;;5.40;3.17;;;;;;;31.39;30.93;94346.56;5128487;27;20188;-47
2023/04/22 10:22:44;;;;;;;4.53;3.05;;;;;;;31.27;30.41;94341.63;5127915;27;20284;-48
2023/04/22 10:25:13;;;;;;;4.07;3.17;;;;;;;30.98;30.98;94318.56;5128345;27;20543;-50
2023/04/22 10:27:40;;;;;;;2.97;2.53;;;;;;;30.90;30.44;94339.50;5130194;27;20268;-48
2023/04/22 10:30:10;;;;;;;32.30;3.47;;;;;;;30.73;30.69;94343.28;5128670;27;20757;-48
2023/04/22 10:32:37;;;;;;;22.73;3.70;;;;;;;30.44;32.77;94335.22;5128696;27;20708;-48
2023/04/22 10:35:11;;;;;;;15.35;3.20;;;;;;;30.04;32.22;94338.75;5128255;27;20180;-48
2023/04/22 10:37:42;;;;;;;15.18;3.40;;;;;;;29.80;33.78;94328.00;5128290;27;20274;-48
2023/04/22 10:40:12;;;;;;;5.07;2.33;;;;;;;29.44;32.26;94314.81;5127999;27;20319;-47
2023/04/22 10:42:42;;;;;;;9.20;2.50;;;;;;;29.17;33.14;94330.91;5128641;27;20231;-49
2023/04/22 10:45:14;;;;;;;9.82;2.40;;;;;;;28.84;34.49;94337.41;5127842;27;20200;-47
2023/04/22 10:47:41;;;;;;;10.93;2.75;;;;;;;28.58;35.60;94338.38;5127687;27;20223;-47
2023/04/22 10:50:16;;;;;;;7.85;2.75;;;;;;;28.34;35.83;94319.59;5127714;27;20652;-47
2023/04/22 10:52:46;;;;;;;3.67;2.88;;;;;;;28.02;35.98;94309.97;5128330;27;20992;-48
2023/04/22 10:55:13;;;;;;;4.50;2.58;;;;;;;27.94;34.86;94327.06;5150912;27;20184;-51
2023/04/22 10:57:42;;;;;;;12.23;2.63;;;;;;;27.59;34.85;94292.63;5150850;27;20851;-49
2023/04/22 11:00:28;;;;;;;8.00;3.65;;;;;;;27.59;34.79;94322.34;5150685;27;20402;-48
2023/04/22 11:03:11;;;;;;;3.78;2.30;;;;;;;27.34;34.61;94309.03;5150973;27;20583;-48
2023/04/22 11:05:40;;;;;;;12.50;2.92;;;;;;;27.24;34.42;94321.00;5151086;27;20528;-48
2023/04/22 11:08:13;;;;;;;2.58;2.38;;;;;;;27.12;34.50;94323.03;5151300;27;20552;-49
2023/04/22 11:10:44;;;;;;;3.22;2.25;;;;;;;26.99;34.59;94315.53;5151570;27;20195;-49
2023/04/22 11:13:15;;;;;;;4.40;2.72;;;;;;;26.86;34.28;94323.81;5151360;27;20644;-49
2023/04/22 11:15:43;;;;;;;2.95;2.15;;;;;;;26.78;35.22;94325.03;5150833;27;20187;-48
2023/04/22 11:18:13;;;;;;;4.57;2.70;;;;;;;26.69;35.79;94322.06;5150984;27;20188;-49
2023/04/22 11:20:41;;;;;;;5.82;3.00;;;;;;;26.60;35.67;94326.19;5150635;27;20210;-47
2023/04/22 11:23:08;;;;;;;5.63;2.80;;;;;;;26.45;35.90;94321.53;5150444;27;20238;-49
2023/04/22 11:25:35;;;;;;;3.45;2.90;;;;;;;26.14;35.96;94323.00;5150788;27;20179;-49
2023/04/22 11:28:02;;;;;;;3.13;2.45;;;;;;;26.18;35.72;94339.81;5150825;27;20195;-49
2023/04/22 11:30:30;;;;;;;5.35;2.65;;;;;;;26.12;35.47;94345.22;5150259;27;20259;-47
2023/04/22 11:32:59;;;;;;;5.60;2.45;;;;;;;26.08;35.63;94355.44;5150491;27;20726;-47